Time;durP1;ratioP1;P1;durP2;ratioP2;P2;SDS_P1;SDS_P2;PMS_P1;PMS_P2;Temp;Humidity;BMP_temperature;BMP_pressure;BME280_temperature;BME280_humidity;BME280_pressure;Samples;Min_cycle;Max_cycle;Signal;HPM_P1;HPM_P2
2022/08/18 00:01:00;;;;;;;9.40;5.47;;;19.00;99.90;;;;;;5074322;28;20794;-78
2022/08/18 00:03:28;;;;;;;8.00;5.45;;;18.90;99.90;;;;;;5091794;28;20043;-79
2022/08/18 00:05:54;;;;;;;10.25;5.82;;;18.90;99.90;;;;;;5089735;28;20047;-78
2022/08/18 00:08:20;;;;;;;7.45;4.72;;;19.00;99.90;;;;;;5088127;28;20055;-79
2022/08/18 00:10:45;;;;;;;7.28;5.30;;;18.90;99.90;;;;;;5059068;28;20048;-77
2022/08/18 00:13:11;;;;;;;9.63;5.43;;;18.90;99.90;;;;;;5056316;28;20058;-78
2022/08/18 00:15:37;;;;;;;6.82;4.80;;;18.90;99.90;;;;;;5090969;28;20124;-78
2022/08/18 00:18:03;;;;;;;8.82;4.90;;;18.90;99.90;;;;;;5091822;28;20047;-78
2022/08/18 00:20:28;;;;;;;9.63;5.65;;;18.90;99.90;;;;;;5091879;28;20040;-78
2022/08/18 00:22:57;;;;;;;10.70;5.65;;;18.90;99.90;;;;;;5058125;28;20108;-77
2022/08/18 00:25:23;;;;;;;6.65;4.85;;;18.90;99.90;;;;;;5074530;28;20136;-78
2022/08/18 00:27:49;;;;;;;10.75;5.80;;;18.90;99.90;;;;;;5075042;28;20130;-78
2022/08/18 00:30:18;;;;;;;12.50;5.68;;;18.90;99.90;;;;;;5059065;28;20104;-78
2022/08/18 00:32:48;;;;;;;8.98;5.20;;;18.90;99.90;;;;;;5072036;28;20055;-78
2022/08/18 00:35:25;;;;;;;11.90;6.07;;;18.90;99.90;;;;;;5091671;28;20118;-78
2022/08/18 00:37:52;;;;;;;9.88;5.60;;;18.90;99.90;;;;;;5072754;28;20063;-78
2022/08/18 00:40:22;;;;;;;10.48;5.65;;;18.90;99.90;;;;;;5072937;28;20192;-77
2022/08/18 00:42:51;;;;;;;8.32;5.63;;;18.90;99.90;;;;;;5090938;28;20050;-78
2022/08/18 00:45:27;;;;;;;7.53;5.25;;;18.80;99.90;;;;;;5089364;28;20082;-78
2022/08/18 00:47:53;;;;;;;7.25;5.30;;;18.80;99.90;;;;;;5089850;28;20094;-78
2022/08/18 00:50:48;;;;;;;8.30;5.78;;;18.80;99.90;;;;;;5073871;28;20530;-78
2022/08/18 00:53:21;;;;;;;7.30;6.32;;;18.90;99.90;;;;;;5089331;28;20116;-78
2022/08/18 00:55:49;;;;;;;8.50;5.63;;;18.90;99.90;;;;;;5090327;28;20047;-78
2022/08/18 00:58:28;;;;;;;8.80;5.60;;;18.90;99.90;;;;;;5092880;28;20087;-78
2022/08/18 01:00:54;;;;;;;6.93;5.30;;;18.90;99.90;;;;;;5090158;28;20056;-78
2022/08/18 01:03:21;;;;;;;5.93;5.22;;;18.90;99.90;;;;;;5057404;28;20039;-78
2022/08/18 01:05:58;;;;;;;15.50;5.60;;;18.90;99.90;;;;;;5090928;28;20056;-78
2022/08/18 01:08:25;;;;;;;5.28;4.38;;;18.90;99.90;;;;;;5059248;28;21185;-78
2022/08/18 01:10:51;;;;;;;7.38;4.85;;;18.90;99.90;;;;;;5074565;28;20075;-77
2022/08/18 01:13:17;;;;;;;7.60;4.32;;;18.90;99.90;;;;;;5071766;28;20078;-78
2022/08/18 01:15:43;;;;;;;9.40;5.20;;;18.90;99.90;;;;;;5058261;28;20778;-78
2022/08/18 01:24:04;;;;;;;8.45;4.95;;;18.80;99.90;;;;;;5085973;28;20109;-78
2022/08/18 01:26:30;;;;;;;10.50;5.35;;;18.80;99.90;;;;;;5079760;28;20047;-77
2022/08/18 01:29:04;;;;;;;9.40;5.53;;;18.80;99.90;;;;;;5089456;28;20642;-78
2022/08/18 01:31:36;;;;;;;6.75;5.93;;;18.80;99.90;;;;;;5089493;28;20047;-78
2022/08/18 01:34:03;;;;;;;6.90;5.22;;;18.80;99.90;;;;;;5071871;28;20055;-79
2022/08/18 01:36:29;;;;;;;6.72;5.47;;;18.80;99.90;;;;;;5072844;28;20401;-78
2022/08/18 01:38:56;;;;;;;8.70;5.57;;;18.80;99.90;;;;;;5092670;28;20500;-78
2022/08/18 01:41:23;;;;;;;7.78;5.18;;;18.80;99.90;;;;;;5088592;28;20535;-78
2022/08/18 01:43:49;;;;;;;7.20;5.03;;;18.70;99.90;;;;;;5072272;28;20093;-78
2022/08/18 01:46:22;;;;;;;10.82;5.78;;;18.70;99.90;;;;;;5072293;28;20477;-79
2022/08/18 01:48:48;;;;;;;11.98;5.95;;;18.70;99.90;;;;;;5087666;28;20509;-78
2022/08/18 01:51:16;;;;;;;7.60;5.45;;;18.70;99.90;;;;;;5072702;28;20082;-79
2022/08/18 01:53:42;;;;;;;8.45;5.75;;;18.70;99.90;;;;;;5088906;28;20047;-78
2022/08/18 01:56:08;;;;;;;8.98;6.10;;;18.70;99.90;;;;;;5091961;28;20032;-77
2022/08/18 01:58:35;;;;;;;7.50;5.10;;;18.70;99.90;;;;;;5069253;28;20101;-78
2022/08/18 02:01:02;;;;;;;9.32;5.40;;;18.70;99.90;;;;;;5071217;28;20051;-79
2022/08/18 02:03:37;;;;;;;9.88;5.60;;;18.70;99.90;;;;;;5088825;28;20097;-78
2022/08/18 02:06:09;;;;;;;10.90;4.65;;;18.70;99.90;;;;;;5059740;28;20052;-78
2022/08/18 02:08:36;;;;;;;8.30;4.90;;;18.70;99.90;;;;;;5088194;28;20409;-78
2022/08/18 02:11:02;;;;;;;5.90;5.30;;;18.70;99.90;;;;;;5059521;28;20057;-78
2022/08/18 02:13:28;;;;;;;7.53;5.53;;;18.70;99.90;;;;;;5087869;28;20048;-78
2022/08/18 02:15:55;;;;;;;6.75;5.00;;;18.70;99.90;;;;;;5074871;28;20039;-77
2022/08/18 02:18:27;;;;;;;8.38;4.90;;;18.70;99.90;;;;;;5090888;28;20048;-78
2022/08/18 02:20:58;;;;;;;8.80;5.25;;;18.70;99.90;;;;;;5091256;28;20116;-78
2022/08/18 02:23:24;;;;;;;5.90;4.95;;;18.70;99.90;;;;;;5071154;28;20501;-78
2022/08/18 02:25:50;;;;;;;8.77;5.72;;;18.70;99.90;;;;;;5056048;28;20131;-78
2022/08/18 02:28:16;;;;;;;7.80;4.60;;;18.70;99.90;;;;;;5070967;28;20140;-78
2022/08/18 02:30:42;;;;;;;7.28;4.65;;;18.70;99.90;;;;;;5088437;28;20083;-78
2022/08/18 02:33:10;;;;;;;6.80;4.80;;;18.70;99.90;;;;;;5087863;28;20058;-79
2022/08/18 02:35:37;;;;;;;7.50;4.80;;;18.70;99.90;;;;;;5059403;28;20051;-78
2022/08/18 02:38:05;;;;;;;6.40;5.10;;;18.70;99.90;;;;;;5085899;28;20119;-78
2022/08/18 02:40:32;;;;;;;8.35;4.90;;;18.70;99.90;;;;;;5070613;28;20477;-78
2022/08/18 02:43:03;;;;;;;9.95;4.85;;;18.70;99.90;;;;;;5088046;28;20040;-78
2022/08/18 02:45:29;;;;;;;7.00;4.70;;;18.70;99.90;;;;;;5089920;28;20036;-78
2022/08/18 02:47:55;;;;;;;5.07;4.28;;;18.70;99.90;;;;;;5054808;28;20062;-77
2022/08/18 02:50:22;;;;;;;6.53;4.72;;;18.70;99.90;;;;;;5072027;28;20089;-78
2022/08/18 02:52:48;;;;;;;5.32;4.45;;;18.70;99.90;;;;;;5057059;28;20055;-78
2022/08/18 02:55:15;;;;;;;6.30;4.43;;;18.70;99.90;;;;;;5074451;28;20057;-78
2022/08/18 02:57:46;;;;;;;7.20;5.50;;;18.70;99.90;;;;;;5071711;28;20047;-78
2022/08/18 03:00:16;;;;;;;6.90;4.88;;;18.70;99.90;;;;;;5069890;28;20044;-78
2022/08/18 03:02:50;;;;;;;10.38;5.45;;;18.80;99.90;;;;;;5072111;28;20452;-78
2022/08/18 03:05:17;;;;;;;5.45;4.10;;;18.80;99.90;;;;;;5074984;28;20043;-79
2022/08/18 03:07:43;;;;;;;6.55;4.28;;;18.30;99.90;;;;;;5063561;28;20051;-79
2022/08/18 03:10:09;;;;;;;8.45;5.10;;;18.80;99.90;;;;;;5058410;28;20719;-80
2022/08/18 03:12:35;;;;;;;5.30;4.50;;;18.80;99.90;;;;;;5092080;28;20044;-78
2022/08/18 03:15:01;;;;;;;7.93;4.68;;;18.80;99.90;;;;;;5075990;28;20036;-79
2022/08/18 03:17:27;;;;;;;7.07;4.78;;;18.80;99.90;;;;;;5073580;28;20054;-79
2022/08/18 03:19:52;;;;;;;5.07;4.30;;;18.90;99.90;;;;;;5092628;28;20579;-79
2022/08/18 03:22:19;;;;;;;6.03;4.00;;;18.90;99.90;;;;;;5058481;28;20047;-79
2022/08/18 03:24:44;;;;;;;5.65;4.90;;;18.90;99.90;;;;;;5091272;28;20040;-79
2022/08/18 03:27:11;;;;;;;6.70;4.43;;;18.90;99.90;;;;;;5092722;28;20060;-79
2022/08/18 03:29:36;;;;;;;6.15;4.53;;;18.90;99.90;;;;;;5091820;28;20577;-79
2022/08/18 03:32:05;;;;;;;7.80;4.45;;;18.90;99.90;;;;;;5092412;28;20036;-78
2022/08/18 03:34:31;;;;;;;7.25;4.20;;;18.90;99.90;;;;;;5091132;28;20677;-78
2022/08/18 03:36:57;;;;;;;5.32;4.55;;;18.90;99.90;;;;;;5073783;28;20792;-78
2022/08/18 03:39:24;;;;;;;9.50;4.57;;;19.00;99.90;;;;;;5091528;28;20043;-78
2022/08/18 03:41:54;;;;;;;7.05;4.35;;;19.00;99.90;;;;;;5060387;28;20051;-77
2022/08/18 03:44:21;;;;;;;6.28;4.45;;;19.00;99.90;;;;;;5062313;28;20052;-79
2022/08/18 03:46:49;;;;;;;6.47;4.28;;;19.00;99.90;;;;;;5089556;28;20054;-78
2022/08/18 03:49:16;;;;;;;4.28;3.50;;;19.10;99.90;;;;;;5091077;28;22349;-78
2022/08/18 03:51:45;;;;;;;6.45;3.45;;;19.00;99.90;;;;;;5089158;28;20497;-78
2022/08/18 03:54:12;;;;;;;5.22;3.58;;;19.10;99.90;;;;;;5074906;28;20435;-78
2022/08/18 03:56:40;;;;;;;5.28;3.20;;;19.10;99.90;;;;;;5060520;28;20314;-78
2022/08/18 03:59:09;;;;;;;4.10;3.22;;;19.10;99.90;;;;;;5091143;28;20044;-78
2022/08/18 04:01:38;;;;;;;5.47;3.28;;;19.10;99.90;;;;;;5092782;28;20083;-79
2022/08/18 04:04:07;;;;;;;5.72;3.28;;;19.10;99.90;;;;;;5091211;28;20488;-78
2022/08/18 04:06:38;;;;;;;7.90;4.53;;;19.10;99.90;;;;;;5075928;28;20831;-78
2022/08/18 04:09:08;;;;;;;5.88;3.80;;;19.10;99.90;;;;;;5090106;28;20044;-78
2022/08/18 04:11:36;;;;;;;6.00;3.80;;;19.10;99.90;;;;;;5090676;28;20083;-78
2022/08/18 04:14:02;;;;;;;5.65;3.78;;;19.10;99.90;;;;;;5089895;28;20048;-78
2022/08/18 04:16:31;;;;;;;6.70;3.75;;;19.20;99.90;;;;;;5074424;28;20047;-78
2022/08/18 04:19:00;;;;;;;5.07;4.13;;;19.10;99.90;;;;;;5091484;28;20108;-78
2022/08/18 04:21:26;;;;;;;5.57;4.13;;;19.10;99.90;;;;;;5090701;28;20040;-78
2022/08/18 04:23:53;;;;;;;9.35;5.30;;;19.10;99.90;;;;;;5091102;28;20035;-78
2022/08/18 04:26:19;;;;;;;7.13;3.60;;;19.20;99.90;;;;;;5044027;28;20047;-78
2022/08/18 04:28:45;;;;;;;6.40;3.58;;;19.20;99.90;;;;;;5060202;28;20046;-78
2022/08/18 04:31:13;;;;;;;8.82;3.92;;;19.10;99.90;;;;;;5090554;28;20048;-78
2022/08/18 04:33:40;;;;;;;6.40;3.30;;;19.10;99.90;;;;;;5089311;28;20053;-79
2022/08/18 04:36:11;;;;;;;5.90;3.38;;;19.10;99.90;;;;;;5092870;28;20048;-78
2022/08/18 04:38:38;;;;;;;7.53;4.03;;;19.20;99.90;;;;;;5075914;28;20059;-79
2022/08/18 04:41:05;;;;;;;6.15;3.90;;;19.20;99.90;;;;;;5090897;28;20395;-78
2022/08/18 04:43:31;;;;;;;5.10;3.22;;;19.10;99.90;;;;;;5091984;28;20056;-78
2022/08/18 04:46:00;;;;;;;6.07;3.25;;;19.20;99.90;;;;;;5088765;28;20564;-80
2022/08/18 04:48:44;;;;;;;6.03;3.53;;;19.20;99.90;;;;;;5090286;28;20067;-79
2022/08/18 04:51:13;;;;;;;5.65;3.30;;;19.20;99.90;;;;;;5057458;28;20055;-80
2022/08/18 04:53:44;;;;;;;5.93;3.92;;;19.20;99.90;;;;;;5073557;28;20106;-80
2022/08/18 04:56:26;;;;;;;5.88;3.60;;;19.20;99.90;;;;;;5071761;28;20094;-79
2022/08/18 04:58:53;;;;;;;6.43;3.03;;;19.20;99.90;;;;;;5060916;28;20150;-80
2022/08/18 05:01:23;;;;;;;4.78;3.40;;;19.20;99.90;;;;;;5084826;28;20036;-81
2022/08/18 05:03:50;;;;;;;7.43;3.42;;;19.20;99.90;;;;;;5086847;28;20040;-83
2022/08/18 05:06:18;;;;;;;4.90;3.38;;;19.20;99.90;;;;;;5087211;28;20576;-83
2022/08/18 05:08:45;;;;;;;4.32;3.03;;;19.30;99.90;;;;;;5083562;28;20036;-83
2022/08/18 05:11:14;;;;;;;7.25;4.40;;;19.30;99.90;;;;;;5088068;28;20075;-83
2022/08/18 05:13:41;;;;;;;6.40;3.53;;;19.30;99.90;;;;;;5057036;28;20081;-82
2022/08/18 05:16:08;;;;;;;5.82;4.03;;;19.30;99.90;;;;;;5071245;28;20048;-83
2022/08/18 05:18:39;;;;;;;6.90;3.38;;;19.30;99.90;;;;;;5070064;28;20119;-82
2022/08/18 05:21:13;;;;;;;7.28;4.30;;;19.30;99.90;;;;;;5091298;28;20078;-82
2022/08/18 05:23:43;;;;;;;7.35;3.70;;;19.40;99.90;;;;;;5072088;28;20058;-83
2022/08/18 05:26:12;;;;;;;5.70;4.15;;;19.40;99.90;;;;;;5071542;28;20105;-82
2022/08/18 05:28:38;;;;;;;8.85;4.20;;;19.40;99.90;;;;;;5070298;28;20031;-83
2022/08/18 05:31:14;;;;;;;5.90;3.85;;;19.40;99.90;;;;;;5057561;28;20032;-84
2022/08/18 05:33:40;;;;;;;4.85;3.50;;;19.40;99.90;;;;;;5060242;28;20155;-84
2022/08/18 05:36:42;;;;;;;6.22;3.65;;;19.50;99.90;;;;;;5090824;28;21233;-84
2022/08/18 05:39:26;;;;;;;6.60;3.72;;;19.50;99.90;;;;;;5087453;28;20055;-84
2022/08/18 05:42:02;;;;;;;9.15;4.25;;;19.50;99.90;;;;;;5085501;28;20048;-83
2022/08/18 05:44:31;;;;;;;4.78;2.78;;;19.40;99.90;;;;;;5066942;28;20043;-84
2022/08/18 05:47:12;;;;;;;6.07;3.00;;;19.60;99.90;;;;;;5086855;28;20036;-84
2022/08/18 05:49:42;;;;;;;4.38;2.75;;;19.60;99.90;;;;;;5068853;28;20060;-83
2022/08/18 05:52:34;;;;;;;5.50;2.97;;;19.60;99.90;;;;;;5084473;28;20490;-82
2022/08/18 05:58:11;;;;;;;5.10;2.70;;;19.70;99.90;;;;;;5084718;28;20509;-83
2022/08/18 06:00:37;;;;;;;4.90;3.17;;;19.70;99.90;;;;;;5070191;28;20058;-83
2022/08/18 06:03:12;;;;;;;3.65;2.40;;;19.70;99.90;;;;;;5048738;28;20477;-82
2022/08/18 06:05:48;;;;;;;6.40;2.85;;;19.70;99.90;;;;;;5075971;28;20043;-82
2022/08/18 06:08:17;;;;;;;7.03;2.65;;;19.80;99.90;;;;;;5072749;28;20370;-83
2022/08/18 06:10:49;;;;;;;4.57;2.60;;;19.80;99.90;;;;;;5068827;28;20044;-83
2022/08/18 06:13:19;;;;;;;5.25;2.50;;;19.80;99.90;;;;;;5069741;28;20051;-83
2022/08/18 06:15:48;;;;;;;4.63;2.95;;;19.80;99.90;;;;;;5055371;28;20050;-82
2022/08/18 06:18:16;;;;;;;6.78;3.10;;;19.80;99.90;;;;;;5056889;28;20051;-82
2022/08/18 06:21:20;;;;;;;4.25;2.40;;;19.80;99.90;;;;;;5068232;28;20040;-82
2022/08/18 06:23:54;;;;;;;4.18;2.65;;;19.80;99.90;;;;;;5078732;28;20781;-82
2022/08/18 06:26:42;;;;;;;5.25;2.50;;;19.80;99.90;;;;;;5069042;28;20150;-82
2022/08/18 06:29:46;;;;;;;6.55;3.03;;;19.80;99.90;;;;;;5082023;28;20040;-82
2022/08/18 06:32:27;;;;;;;6.65;2.50;;;19.90;99.90;;;;;;5066869;28;20055;-83
2022/08/18 06:35:07;;;;;;;6.47;2.53;;;19.90;99.90;;;;;;5065407;28;20044;-82
2022/08/18 06:38:37;;;;;;;3.72;1.95;;;19.80;99.90;;;;;;5071407;28;20051;-84
2022/08/18 06:40:27;;;;;;;3.65;1.70;;;19.80;99.90;;;;;;5082993;28;20052;-84
2022/08/18 06:42:53;;;;;;;2.72;1.63;;;19.70;99.90;;;;;;5064704;28;20097;-82
2022/08/18 06:45:27;;;;;;;3.25;1.98;;;19.70;99.90;;;;;;5069085;28;20501;-81
2022/08/18 06:48:00;;;;;;;4.32;1.88;;;19.70;99.90;;;;;;5068282;28;20098;-83
2022/08/18 06:50:41;;;;;;;3.95;1.60;;;19.70;99.90;;;;;;5073300;28;20048;-81
2022/08/18 06:53:07;;;;;;;2.60;1.50;;;19.70;99.90;;;;;;5068464;28;20104;-82
2022/08/18 06:55:46;;;;;;;4.03;2.05;;;19.70;99.90;;;;;;5084552;28;20044;-84
2022/08/18 06:58:14;;;;;;;3.15;1.42;;;19.70;99.90;;;;;;5070499;28;20047;-83
2022/08/18 07:00:50;;;;;;;2.72;1.65;;;19.70;99.90;;;;;;5070154;28;20052;-82
2022/08/18 07:03:17;;;;;;;;;;;19.70;99.90;;;;;;5061255;28;20036;-82
2022/08/18 07:06:04;;;;;;;5.60;2.17;;;19.70;99.90;;;;;;5059154;28;20315;-83
2022/08/18 07:08:38;;;;;;;4.03;1.85;;;19.70;99.90;;;;;;5059615;28;20062;-86
2022/08/18 07:11:13;;;;;;;6.97;2.25;;;19.80;99.90;;;;;;5073635;28;20737;-82
2022/08/18 07:13:41;;;;;;;5.28;2.00;;;20.10;99.90;;;;;;5087847;28;20031;-82
2022/08/18 07:16:23;;;;;;;5.93;2.50;;;19.80;99.90;;;;;;5073992;28;20048;-84
2022/08/18 07:18:50;;;;;;;4.68;1.90;;;19.90;99.90;;;;;;5081010;28;20728;-81
2022/08/18 07:21:33;;;;;;;6.28;1.80;;;20.00;99.90;;;;;;5079652;28;20048;-80
2022/08/18 07:24:04;;;;;;;6.07;1.83;;;20.00;99.90;;;;;;5091300;28;20047;-81
2022/08/18 07:26:50;;;;;;;11.68;2.78;;;20.00;99.90;;;;;;5097044;28;20130;-84
2022/08/18 07:29:16;;;;;;;5.40;1.88;;;20.10;99.90;;;;;;5096502;28;20056;-84
2022/08/18 07:31:48;;;;;;;6.93;1.95;;;20.10;99.90;;;;;;5097303;28;20116;-86
2022/08/18 07:34:18;;;;;;;5.53;2.10;;;20.10;99.90;;;;;;5062717;28;20043;-84
2022/08/18 07:36:52;;;;;;;8.10;2.50;;;20.20;99.90;;;;;;5079510;28;20044;-84
2022/08/18 07:39:30;;;;;;;8.05;2.10;;;20.20;99.90;;;;;;5096720;28;20052;-81
2022/08/18 07:42:04;;;;;;;5.72;2.10;;;20.20;99.90;;;;;;5080605;28;20764;-81
2022/08/18 07:44:38;;;;;;;8.63;2.53;;;20.20;99.90;;;;;;5065406;28;20109;-80
2022/08/18 07:47:13;;;;;;;8.02;2.40;;;20.20;99.90;;;;;;5079441;28;20047;-80
2022/08/18 07:49:41;;;;;;;6.90;2.25;;;20.30;99.90;;;;;;5079678;28;20052;-80
2022/08/18 07:52:25;;;;;;;2.70;2.03;;;20.30;99.90;;;;;;5098821;28;20055;-81
2022/08/18 07:54:56;;;;;;;6.57;2.05;;;20.30;99.90;;;;;;5080301;28;20091;-80
2022/08/18 07:57:40;;;;;;;4.03;1.63;;;20.20;99.90;;;;;;5099581;28;20509;-82
2022/08/18 08:00:18;;;;;;;5.03;1.65;;;20.20;99.90;;;;;;5081964;28;20047;-82
2022/08/18 08:03:18;;;;;;;3.53;1.40;;;20.30;99.90;;;;;;5066377;28;20047;-82
2022/08/18 08:05:51;;;;;;;3.22;1.52;;;20.30;99.90;;;;;;5080860;28;20051;-82
2022/08/18 08:08:42;;;;;;;4.35;1.67;;;20.30;99.90;;;;;;5067473;28;20051;-81
2022/08/18 08:11:44;;;;;;;4.20;1.50;;;20.30;99.90;;;;;;5099384;28;20075;-82
2022/08/18 08:14:18;;;;;;;4.53;1.52;;;20.40;99.90;;;;;;5083439;28;20077;-82
2022/08/18 08:16:52;;;;;;;4.65;1.60;;;20.50;99.90;;;;;;5098810;28;20044;-82
2022/08/18 08:19:27;;;;;;;3.53;1.50;;;20.50;99.90;;;;;;5100504;28;20047;-82
2022/08/18 08:22:15;;;;;;;3.45;1.60;;;20.60;99.90;;;;;;5084021;28;20392;-82
2022/08/18 08:24:51;;;;;;;2.92;1.40;;;20.60;99.90;;;;;;5082925;28;20052;-82
2022/08/18 08:27:55;;;;;;;8.55;1.67;;;20.70;99.90;;;;;;5066048;28;20424;-82
2022/08/18 08:30:24;;;;;;;5.68;1.77;;;20.80;99.90;;;;;;5099486;28;20044;-81
2022/08/18 08:33:26;;;;;;;3.50;1.70;;;20.90;99.90;;;;;;5098688;28;20044;-82
2022/08/18 08:36:16;;;;;;;3.25;1.77;;;20.90;99.90;;;;;;5064983;28;20107;-82
2022/08/18 08:38:50;;;;;;;3.42;1.50;;;20.90;99.90;;;;;;5083584;28;20099;-82
2022/08/18 08:41:25;;;;;;;3.40;1.50;;;21.10;99.90;;;;;;5081152;28;20056;-86
2022/08/18 08:44:08;;;;;;;3.28;1.70;;;21.20;99.90;;;;;;5080702;28;20083;-82
2022/08/18 08:46:48;;;;;;;3.20;1.52;;;21.30;99.90;;;;;;5079844;28;20079;-83
2022/08/18 08:49:47;;;;;;;2.65;1.50;;;21.40;99.90;;;;;;5067021;28;20143;-82
2022/08/18 08:52:28;;;;;;;3.80;1.77;;;21.60;99.90;;;;;;5065407;28;20050;-82
2022/08/18 08:55:08;;;;;;;3.28;1.70;;;21.80;99.90;;;;;;5066974;28;20058;-82
2022/08/18 08:58:09;;;;;;;4.60;1.90;;;22.00;99.90;;;;;;5079478;28;20083;-82
2022/08/18 09:00:37;;;;;;;3.65;1.70;;;22.60;99.90;;;;;;5059561;28;20105;-83
2022/08/18 09:03:23;;;;;;;3.95;2.03;;;23.00;99.90;;;;;;5082015;28;20051;-81
2022/08/18 09:06:22;;;;;;;5.10;2.10;;;23.50;99.90;;;;;;5098985;28;20059;-81
2022/08/18 09:09:13;;;;;;;3.83;1.98;;;23.60;99.90;;;;;;5065208;28;20120;-82
2022/08/18 09:12:04;;;;;;;3.17;1.20;;;23.80;99.90;;;;;;5082500;28;20043;-83
2022/08/18 09:15:02;;;;;;;2.65;1.33;;;23.80;99.90;;;;;;5080172;28;20051;-82
2022/08/18 09:17:52;;;;;;;3.22;1.60;;;23.80;99.90;;;;;;5038832;28;20063;-82
2022/08/18 09:20:24;;;;;;;2.33;1.13;;;23.90;99.90;;;;;;5065886;28;20043;-82
2022/08/18 09:22:55;;;;;;;3.13;1.23;;;23.90;99.90;;;;;;5097736;28;20048;-82
2022/08/18 09:25:31;;;;;;;4.90;1.20;;;23.90;99.90;;;;;;5080743;28;20048;-82
2022/08/18 09:28:16;;;;;;;2.67;1.20;;;24.20;99.90;;;;;;5078203;28;20499;-86
2022/08/18 09:30:47;;;;;;;2.53;1.08;;;24.70;99.90;;;;;;5096419;28;20126;-80
2022/08/18 09:33:48;;;;;;;2.55;1.30;;;25.20;99.90;;;;;;5063858;28;20070;-79
2022/08/18 09:36:23;;;;;;;2.90;1.30;;;25.60;99.90;;;;;;5098228;28;20047;-80
2022/08/18 09:41:46;;;;;;;2.33;1.15;;;25.40;99.90;;;;;;5097675;28;20090;-80
2022/08/18 09:44:34;;;;;;;3.72;1.40;;;25.00;99.90;;;;;;5096322;28;20040;-80
2022/08/18 09:47:00;;;;;;;4.07;1.85;;;24.70;99.90;;;;;;5081746;28;20078;-80
2022/08/18 09:49:26;;;;;;;2.78;1.35;;;24.50;99.90;;;;;;5079274;28;20425;-80
2022/08/18 09:51:55;;;;;;;4.00;1.30;;;24.30;99.90;;;;;;5081267;28;20047;-80
2022/08/18 09:54:23;;;;;;;2.35;1.10;;;24.40;99.90;;;;;;5096479;28;20127;-80
2022/08/18 09:56:49;;;;;;;2.22;1.00;;;24.20;99.90;;;;;;5097880;28;20040;-80
2022/08/18 09:59:33;;;;;;;2.03;1.00;;;24.10;99.90;;;;;;5081136;28;20481;-79
2022/08/18 10:02:00;;;;;;;3.25;1.10;;;24.00;99.90;;;;;;5081204;28;20083;-79
2022/08/18 10:04:30;;;;;;;3.58;1.08;;;24.00;99.90;;;;;;5098248;28;20043;-80
2022/08/18 10:07:16;;;;;;;2.25;1.00;;;23.90;99.90;;;;;;5097086;28;20154;-81
2022/08/18 10:09:49;;;;;;;2.55;1.30;;;24.00;99.90;;;;;;5096495;28;20048;-80
2022/08/18 10:12:15;;;;;;;3.47;1.42;;;24.30;99.90;;;;;;5081223;28;20047;-80
2022/08/18 10:14:53;;;;;;;2.25;1.23;;;24.70;99.90;;;;;;5081677;28;20054;-80
2022/08/18 10:17:28;;;;;;;3.13;1.10;;;25.00;99.90;;;;;;5083433;28;20104;-80
2022/08/18 10:20:13;;;;;;;3.35;1.15;;;25.30;99.90;;;;;;5080095;28;20047;-79
2022/08/18 10:22:45;;;;;;;2.57;0.87;;;25.50;99.90;;;;;;5093282;28;20044;-81
2022/08/18 10:25:13;;;;;;;3.38;1.20;;;25.90;99.90;;;;;;5083665;28;20052;-82
2022/08/18 10:27:44;;;;;;;2.60;1.10;;;26.20;99.90;;;;;;5080072;28;20189;-81
2022/08/18 10:30:32;;;;;;;2.55;0.98;;;26.50;99.90;;;;;;5096301;28;20044;-80
2022/08/18 10:32:58;;;;;;;2.60;1.05;;;26.90;99.90;;;;;;5077898;28;20044;-80
2022/08/18 10:35:36;;;;;;;3.28;1.30;;;27.30;99.90;;;;;;5082543;28;20058;-80
2022/08/18 10:38:18;;;;;;;3.10;1.48;;;27.60;99.90;;;;;;5079630;28;20298;-80
2022/08/18 10:40:58;;;;;;;1.80;0.90;;;27.80;99.90;;;;;;5080378;28;20127;-81
2022/08/18 10:43:49;;;;;;;2.17;1.10;;;28.00;99.90;;;;;;5077826;28;20076;-80
2022/08/18 10:46:31;;;;;;;1.92;1.02;;;28.30;99.90;;;;;;5085323;28;20064;-81
2022/08/18 10:49:01;;;;;;;2.05;1.00;;;28.60;99.90;;;;;;5083162;28;20055;-80
2022/08/18 10:52:32;;;;;;;2.22;1.02;;;28.80;99.90;;;;;;5077517;28;20843;-81
2022/08/18 10:55:16;;;;;;;2.92;1.00;;;29.10;99.90;;;;;;4972816;28;20057;-80
2022/08/18 10:58:09;;;;;;;2.03;1.10;;;29.30;99.90;;;;;;5006802;28;20130;-82
2022/08/18 11:00:55;;;;;;;3.38;1.10;;;29.20;99.90;;;;;;5086178;28;20060;-80
2022/08/18 11:03:33;;;;;;;2.65;1.33;;;29.40;99.90;;;;;;5062670;28;20055;-81
2022/08/18 11:06:08;;;;;;;3.25;1.02;;;29.40;99.90;;;;;;5094444;28;20099;-80
2022/08/18 11:08:46;;;;;;;2.10;1.13;;;29.60;99.90;;;;;;5096792;28;20106;-80
2022/08/18 11:11:18;;;;;;;3.53;1.30;;;29.80;99.90;;;;;;5077653;28;20048;-79
2022/08/18 11:13:59;;;;;;;2.40;1.20;;;29.90;99.90;;;;;;5082651;28;20070;-81
2022/08/18 11:16:54;;;;;;;3.65;1.13;;;30.00;99.90;;;;;;5062496;28;20051;-79
2022/08/18 11:19:21;;;;;;;1.50;0.80;;;30.00;99.90;;;;;;5018780;28;20160;-79
2022/08/18 11:21:52;;;;;;;1.52;0.85;;;30.20;99.90;;;;;;5079912;28;20044;-80
2022/08/18 11:24:23;;;;;;;2.28;0.85;;;30.40;99.90;;;;;;5097749;28;20044;-80
2022/08/18 11:26:51;;;;;;;1.13;0.75;;;30.50;99.40;;;;;;5101070;28;20044;-80
2022/08/18 11:29:30;;;;;;;1.33;0.80;;;30.40;99.20;;;;;;5087350;28;20075;-79
2022/08/18 11:32:10;;;;;;;1.73;0.80;;;30.50;98.30;;;;;;5083570;28;20078;-80
2022/08/18 11:34:39;;;;;;;1.58;0.80;;;30.60;98.60;;;;;;5100921;28;20044;-80
2022/08/18 11:37:18;;;;;;;3.20;0.95;;;30.70;98.10;;;;;;5068425;28;20052;-80
2022/08/18 11:39:49;;;;;;;1.67;1.00;;;30.80;97.90;;;;;;5067177;28;20079;-80
2022/08/18 11:42:17;;;;;;;1.00;0.60;;;31.00;97.40;;;;;;5083709;28;20055;-80
2022/08/18 11:44:44;;;;;;;2.60;0.90;;;31.20;97.20;;;;;;5097712;28;20052;-79
2022/08/18 11:47:16;;;;;;;2.22;0.80;;;31.20;96.80;;;;;;5100072;28;20131;-80
2022/08/18 11:49:55;;;;;;;1.40;0.90;;;31.30;96.40;;;;;;5099781;28;20091;-80
2022/08/18 11:52:28;;;;;;;1.23;0.90;;;31.50;92.80;;;;;;5082913;28;20051;-80
2022/08/18 11:55:01;;;;;;;1.45;0.70;;;31.60;94.40;;;;;;5098767;28;20104;-80
2022/08/18 11:57:39;;;;;;;1.13;0.80;;;31.50;94.90;;;;;;5100317;28;20076;-80
2022/08/18 12:00:39;;;;;;;0.93;0.70;;;31.40;95.40;;;;;;5066175;28;20044;-80
2022/08/18 12:03:24;;;;;;;1.95;0.90;;;31.50;93.10;;;;;;5081746;28;20668;-81
2022/08/18 12:05:53;;;;;;;1.48;0.80;;;31.40;93.10;;;;;;5083520;28;20054;-80
2022/08/18 12:08:41;;;;;;;1.80;0.60;;;30.90;94.40;;;;;;5097378;28;20101;-80
2022/08/18 12:11:16;;;;;;;2.45;0.90;;;30.50;94.90;;;;;;5067453;28;20147;-81
2022/08/18 12:13:47;;;;;;;;;;;30.20;94.60;;;;;;5080703;28;20057;-80
2022/08/18 12:16:29;;;;;;;2.92;0.95;;;29.80;93.90;;;;;;5083969;28;19924;-80
2022/08/18 12:18:55;;;;;;;1.95;0.90;;;30.00;96.60;;;;;;5071638;28;20043;-80
2022/08/18 12:21:21;;;;;;;2.38;1.00;;;30.50;96.10;;;;;;5086829;28;20036;-80
2022/08/18 12:23:47;;;;;;;3.00;1.10;;;30.60;95.40;;;;;;5059711;28;20047;-80
2022/08/18 12:26:13;;;;;;;2.28;1.00;;;30.80;95.50;;;;;;5067587;28;20048;-80
2022/08/18 12:28:40;;;;;;;2.33;0.98;;;31.10;95.50;;;;;;5081118;28;20050;-80
2022/08/18 12:31:06;;;;;;;1.58;0.80;;;31.30;95.00;;;;;;5085523;28;20048;-80
2022/08/18 12:33:34;;;;;;;1.95;0.90;;;31.70;94.50;;;;;;5096964;28;20051;-80
2022/08/18 12:36:01;;;;;;;2.28;0.90;;;31.90;94.00;;;;;;5081191;28;20051;-80
2022/08/18 12:38:27;;;;;;;3.03;1.17;;;32.20;93.40;;;;;;5084896;28;20051;-80
2022/08/18 12:40:52;;;;;;;2.22;1.00;;;32.40;92.60;;;;;;5066639;28;20047;-80
2022/08/18 12:43:18;;;;;;;1.98;0.82;;;32.70;92.40;;;;;;5068151;28;20507;-81
2022/08/18 12:45:45;;;;;;;2.05;0.80;;;32.90;92.00;;;;;;5082214;28;20035;-81
2022/08/18 12:48:11;;;;;;;1.98;0.70;;;33.00;91.50;;;;;;5051450;28;20047;-81
2022/08/18 12:50:38;;;;;;;1.42;0.70;;;32.70;91.30;;;;;;5070604;28;20039;-80
2022/08/18 12:53:04;;;;;;;1.20;0.70;;;32.60;91.40;;;;;;5069808;28;20043;-80
2022/08/18 12:55:37;;;;;;;2.15;0.93;;;32.10;91.40;;;;;;5079384;28;20083;-81
2022/08/18 12:58:04;;;;;;;2.45;0.98;;;31.70;91.60;;;;;;5103815;28;20059;-81
2022/08/18 13:00:30;;;;;;;2.25;1.02;;;31.20;91.80;;;;;;5065756;28;20123;-80
2022/08/18 13:02:58;;;;;;;1.73;0.88;;;31.10;91.80;;;;;;5082149;28;20501;-80
2022/08/18 13:05:25;;;;;;;2.22;0.90;;;31.30;91.80;;;;;;5079667;28;20045;-80
2022/08/18 13:07:50;;;;;;;2.25;0.90;;;31.60;91.60;;;;;;5097615;28;20362;-82
2022/08/18 13:10:16;;;;;;;1.30;0.90;;;31.80;90.90;;;;;;5083190;28;20051;-81
2022/08/18 13:12:42;;;;;;;1.27;0.80;;;32.00;90.90;;;;;;5049205;28;20047;-80
2022/08/18 13:15:09;;;;;;;2.20;1.00;;;32.20;90.60;;;;;;5079674;28;20047;-81
2022/08/18 13:17:38;;;;;;;1.45;0.82;;;32.20;90.00;;;;;;5067309;28;20509;-80
2022/08/18 13:20:09;;;;;;;2.47;0.90;;;32.20;88.30;;;;;;5081114;28;20044;-81
2022/08/18 13:22:39;;;;;;;2.38;0.70;;;32.30;88.80;;;;;;5097465;28;20058;-80
2022/08/18 13:25:06;;;;;;;2.03;0.82;;;32.40;89.10;;;;;;5053770;28;20075;-81
2022/08/18 13:27:32;;;;;;;2.33;1.17;;;32.50;88.00;;;;;;5069583;28;20048;-80
2022/08/18 13:29:58;;;;;;;2.10;0.77;;;32.40;86.30;;;;;;5067822;28;20043;-81